TimeCST,TemperatureF,Dew PointF,Humidity,Sea Level PressureIn,VisibilityMPH,Wind Direction,Wind SpeedMPH,Gust SpeedMPH,PrecipitationIn,Events,Conditions,WindDirDegrees,DateUTC
12:15 AM,36.7,13.8,39,30.12,10.0,SW,9.2,-,N/A,,Clear,220,2013-02-17 06:15:00
12:35 AM,38.3,14.0,37,30.11,10.0,SSW,10.4,-,N/A,,Clear,210,2013-02-17 06:35:00
12:55 AM,38.5,13.8,37,30.10,10.0,SW,6.9,-,N/A,,Clear,220,2013-02-17 06:55:00
1:15 AM,35.1,13.8,42,30.10,10.0,Calm,Calm,-,N/A,,Clear,0,2013-02-17 07:15:00
1:35 AM,34.7,14.5,44,30.09,10.0,Calm,Calm,-,N/A,,Clear,0,2013-02-17 07:35:00
1:55 AM,34.3,14.0,43,30.09,10.0,WSW,3.5,-,N/A,,Clear,240,2013-02-17 07:55:00
2:15 AM,32.9,13.8,45,30.09,10.0,Calm,Calm,-,N/A,,Clear,0,2013-02-17 08:15:00
2:35 AM,34.5,14.2,43,30.09,10.0,Calm,Calm,-,N/A,,Clear,0,2013-02-17 08:35:00
2:55 AM,29.7,13.8,52,30.07,10.0,Calm,Calm,-,N/A,,Clear,0,2013-02-17 08:55:00
3:15 AM,28.9,13.6,53,30.07,10.0,ESE,3.5,-,N/A,,Clear,120,2013-02-17 09:15:00
3:35 AM,28.9,13.3,52,30.07,10.0,ESE,3.5,-,N/A,,Clear,110,2013-02-17 09:35:00
3:55 AM,27.1,12.7,55,30.06,10.0,East,3.5,-,N/A,,Clear,100,2013-02-17 09:55:00
4:15 AM,27.5,12.4,53,30.06,10.0,East,4.6,-,N/A,,Clear,100,2013-02-17 10:15:00
4:35 AM,26.1,12.0,55,30.06,10.0,Calm,Calm,-,N/A,,Clear,0,2013-02-17 10:35:00
4:55 AM,27.0,12.2,54,30.05,10.0,Calm,Calm,-,N/A,,Clear,0,2013-02-17 10:55:00
5:15 AM,27.3,12.0,53,30.05,10.0,East,3.5,-,N/A,,Clear,100,2013-02-17 11:15:00
5:35 AM,26.8,12.0,54,30.05,10.0,Calm,Calm,-,N/A,,Clear,0,2013-02-17 11:35:00
5:55 AM,26.8,12.9,56,30.05,10.0,SE,4.6,-,N/A,,Clear,130,2013-02-17 11:55:00
6:15 AM,25.5,12.6,58,30.05,10.0,ESE,3.5,-,N/A,,Clear,120,2013-02-17 12:15:00
6:35 AM,26.6,13.1,57,30.05,10.0,Calm,Calm,-,N/A,,Clear,0,2013-02-17 12:35:00
6:55 AM,27.3,13.1,55,30.04,10.0,Calm,Calm,-,N/A,,Clear,0,2013-02-17 12:55:00
7:15 AM,27.3,13.6,56,30.05,10.0,Calm,Calm,-,N/A,,Clear,0,2013-02-17 13:15:00
7:35 AM,28.4,14.0,55,30.05,10.0,Calm,Calm,-,N/A,,Clear,0,2013-02-17 13:35:00
7:55 AM,27.9,14.0,56,30.05,10.0,ESE,3.5,-,N/A,,Clear,120,2013-02-17 13:55:00
8:15 AM,29.1,15.3,56,30.05,10.0,Calm,Calm,-,N/A,,Clear,0,2013-02-17 14:15:00
8:35 AM,31.3,16.7,55,30.05,10.0,Calm,Calm,-,N/A,,Clear,0,2013-02-17 14:35:00
8:55 AM,32.9,16.9,52,30.05,10.0,Calm,Calm,-,N/A,,Clear,0,2013-02-17 14:55:00
9:15 AM,35.6,18.0,49,30.05,10.0,Calm,Calm,-,N/A,,Clear,0,2013-02-17 15:15:00
9:35 AM,39.6,18.1,42,30.05,10.0,Calm,Calm,-,N/A,,Clear,0,2013-02-17 15:35:00
9:55 AM,41.4,17.6,38,30.05,10.0,Calm,Calm,-,N/A,,Clear,0,2013-02-17 15:55:00
10:15 AM,45.5,17.8,33,30.05,10.0,Calm,Calm,-,N/A,,Clear,0,2013-02-17 16:15:00
10:35 AM,48.2,19.6,32,30.04,10.0,Calm,Calm,-,N/A,,Clear,0,2013-02-17 16:35:00
10:55 AM,52.9,19.4,27,30.03,10.0,ENE,4.6,-,N/A,,Clear,60,2013-02-17 16:55:00
11:15 AM,56.7,18.3,22,30.02,10.0,NE,6.9,-,N/A,,Clear,50,2013-02-17 17:15:00
11:35 AM,58.5,17.8,21,30.02,10.0,ENE,8.1,-,N/A,,Clear,60,2013-02-17 17:35:00
11:55 AM,61.3,18.7,19,30.00,10.0,ENE,4.6,-,N/A,,Clear,70,2013-02-17 17:55:00
12:15 PM,63.9,17.6,17,29.99,10.0,East,5.8,-,N/A,,Clear,100,2013-02-17 18:15:00
12:55 PM,66.0,16.9,15,29.96,10.0,ESE,4.6,-,N/A,,Clear,110,2013-02-17 18:55:00
1:35 PM,68.9,16.2,13,29.92,10.0,SE,3.5,-,N/A,,Clear,130,2013-02-17 19:35:00
1:55 PM,69.8,16.2,13,29.90,10.0,East,3.5,-,N/A,,Clear,90,2013-02-17 19:55:00
2:35 PM,71.6,14.9,11,29.86,10.0,South,6.9,-,N/A,,Clear,170,2013-02-17 20:35:00
2:55 PM,72.0,15.3,12,29.85,10.0,Calm,Calm,-,N/A,,Clear,0,2013-02-17 20:55:00
3:15 PM,72.7,15.3,11,29.84,10.0,Calm,Calm,-,N/A,,Clear,0,2013-02-17 21:15:00
3:35 PM,72.9,15.4,11,29.83,10.0,Calm,Calm,-,N/A,,Clear,0,2013-02-17 21:35:00
3:55 PM,73.4,16.0,11,29.83,10.0,South,5.8,-,N/A,,Clear,190,2013-02-17 21:55:00
4:15 PM,73.4,16.5,12,29.82,10.0,South,5.8,-,N/A,,Clear,180,2013-02-17 22:15:00
4:35 PM,73.8,16.9,12,29.81,10.0,SSW,6.9,-,N/A,,Clear,200,2013-02-17 22:35:00
4:55 PM,73.4,16.5,12,29.80,10.0,SSW,9.2,-,N/A,,Clear,200,2013-02-17 22:55:00
5:15 PM,73.4,16.9,12,29.80,10.0,SSW,5.8,-,N/A,,Clear,210,2013-02-17 23:15:00
5:35 PM,70.9,17.1,13,29.79,10.0,SSW,4.6,-,N/A,,Clear,200,2013-02-17 23:35:00
5:55 PM,70.5,17.2,13,29.79,10.0,SW,4.6,-,N/A,,Clear,220,2013-02-17 23:55:00
6:15 PM,69.6,17.4,14,29.79,10.0,WSW,5.8,-,N/A,,Clear,240,2013-02-18 00:15:00
6:35 PM,66.0,15.6,14,29.79,10.0,WSW,8.1,-,N/A,,Clear,250,2013-02-18 00:35:00
6:55 PM,63.1,14.7,15,29.79,10.0,WSW,11.5,-,N/A,,Clear,240,2013-02-18 00:55:00
7:15 PM,65.3,15.3,14,29.80,10.0,SW,11.5,-,N/A,,Clear,220,2013-02-18 01:15:00
7:35 PM,62.6,14.9,16,29.80,10.0,SW,9.2,-,N/A,,Clear,220,2013-02-18 01:35:00
8:15 PM,58.1,14.2,18,29.79,10.0,SSW,9.2,-,N/A,,Clear,210,2013-02-18 02:15:00
8:35 PM,55.4,13.8,19,29.79,10.0,SSW,10.4,-,N/A,,Clear,200,2013-02-18 02:35:00
8:55 PM,53.6,14.0,21,29.79,10.0,South,9.2,-,N/A,,Clear,190,2013-02-18 02:55:00
9:15 PM,52.7,13.8,21,29.79,10.0,SSW,8.1,-,N/A,,Clear,200,2013-02-18 03:15:00
9:35 PM,50.9,14.5,24,29.80,10.0,SSW,9.2,-,N/A,,Clear,200,2013-02-18 03:35:00
9:55 PM,49.3,14.0,24,29.80,10.0,SSE,4.6,-,N/A,,Clear,150,2013-02-18 03:55:00
10:15 PM,46.4,14.0,27,29.81,10.0,South,5.8,-,N/A,,Clear,170,2013-02-18 04:15:00
10:55 PM,46.6,15.4,29,29.81,10.0,West,8.1,-,N/A,,Clear,260,2013-02-18 04:55:00
11:15 PM,45.3,15.4,30,29.82,10.0,WSW,3.5,-,N/A,,Clear,240,2013-02-18 05:15:00
11:35 PM,46.0,15.3,29,29.82,10.0,SW,5.8,-,N/A,,Clear,230,2013-02-18 05:35:00
11:55 PM,47.1,15.3,28,29.81,10.0,SSW,5.8,-,N/A,,Clear,200,2013-02-18 05:55:00